Terminal Aerodrome Forecast
Issued by NWS Green Bay, WI

Home | Current Version | Previous Version | Text Only | Print | Product List | Glossary Off
Versions: 1 2 3 4 5 6 7 8 9 10 11 12 13 14 15 16 17 18 19 20 21 22 23 24 25 26 27 28 29 30 31 32 33 34 35 36 37 38 39 40 41 42 43 44 45

000
FTUS43 KGRB 241700
TAFGRB
TAF
KGRB 241723Z 2418/2518 13010KT P6SM SKC
     FM250100 11009KT P6SM SCT150 BKN250
     FM250700 09009KT 4SM -SNPL SCT012 OVC025
     FM250800 07007KT 1 1/2SM -SNPL OVC005
      TEMPO 2508/2511 1/2SM SN OVC003
     FM251300 26009KT P6SM OVC010
     FM251600 25012G18KT P6SM BKN015=

USA.gov is the U.S. government's official web portal to all federal, state and local government web resources and services.